TimeCDT,TemperatureF,Dew PointF,Humidity,Sea Level PressureIn,VisibilityMPH,Wind Direction,Wind SpeedMPH,Gust SpeedMPH,PrecipitationIn,Events,Conditions,WindDirDegrees,DateUTC
12:15 AM,61.9,56.3,82,29.96,10.0,NNW,5.8,-,N/A,,Clear,330,2013-09-02 05:15:00
12:35 AM,61.3,55.9,82,29.97,10.0,NNW,5.8,-,N/A,,Clear,330,2013-09-02 05:35:00
12:55 AM,60.8,55.9,84,29.98,10.0,NNW,5.8,-,N/A,,Clear,330,2013-09-02 05:55:00
1:15 AM,60.1,55.8,86,29.98,10.0,NNW,5.8,-,N/A,,Clear,330,2013-09-02 06:15:00
1:35 AM,59.5,56.3,89,29.98,10.0,NNW,4.6,-,N/A,,Clear,340,2013-09-02 06:35:00
1:55 AM,59.4,56.3,90,29.98,10.0,NNW,5.8,-,N/A,,Clear,340,2013-09-02 06:55:00
2:15 AM,58.6,56.3,92,29.98,10.0,NNW,4.6,-,N/A,,Clear,340,2013-09-02 07:15:00
2:35 AM,58.3,56.3,93,29.98,10.0,NNW,4.6,-,N/A,,Clear,340,2013-09-02 07:35:00
2:55 AM,58.1,56.3,94,29.98,10.0,NNW,4.6,-,N/A,,Clear,340,2013-09-02 07:55:00
3:15 AM,57.6,55.9,94,29.99,10.0,NNW,4.6,-,N/A,,Clear,340,2013-09-02 08:15:00
3:35 AM,57.6,55.9,94,29.98,10.0,NNW,4.6,-,N/A,,Clear,340,2013-09-02 08:35:00
3:55 AM,57.4,55.9,95,29.98,10.0,NNW,4.6,-,N/A,,Clear,340,2013-09-02 08:55:00
4:15 AM,57.2,55.8,95,29.99,10.0,NNW,5.8,-,N/A,,Clear,340,2013-09-02 09:15:00
4:35 AM,57.2,55.6,94,29.99,10.0,NNW,5.8,-,N/A,,Clear,340,2013-09-02 09:35:00
4:55 AM,56.5,55.4,96,30.00,10.0,NNW,5.8,-,N/A,,Clear,330,2013-09-02 09:55:00
5:15 AM,56.3,55.0,96,30.00,10.0,NNW,5.8,-,N/A,,Clear,340,2013-09-02 10:15:00
5:35 AM,55.9,54.9,96,30.01,10.0,North,4.6,-,N/A,,Clear,350,2013-09-02 10:35:00
5:55 AM,55.6,54.5,96,30.01,10.0,North,3.5,-,N/A,,Clear,350,2013-09-02 10:55:00
6:15 AM,55.4,54.5,97,30.01,10.0,North,5.8,-,N/A,,Clear,350,2013-09-02 11:15:00
6:35 AM,55.0,54.1,97,30.02,10.0,North,4.6,-,N/A,,Clear,350,2013-09-02 11:35:00
6:55 AM,54.5,53.6,97,30.03,10.0,NNW,3.5,-,N/A,,Clear,340,2013-09-02 11:55:00
7:15 AM,55.4,54.5,97,30.03,10.0,North,4.6,-,N/A,,Clear,350,2013-09-02 12:15:00
7:35 AM,56.3,55.4,97,30.03,10.0,NNW,6.9,-,N/A,,Clear,340,2013-09-02 12:35:00
7:55 AM,57.9,55.8,92,30.04,10.0,North,6.9,-,N/A,,Clear,350,2013-09-02 12:55:00
8:15 AM,59.2,56.3,90,30.05,10.0,North,6.9,-,N/A,,Clear,360,2013-09-02 13:15:00
8:35 AM,60.8,56.5,86,30.05,10.0,North,3.5,-,N/A,,Clear,360,2013-09-02 13:35:00
8:55 AM,62.2,57.0,83,30.05,10.0,North,5.8,-,N/A,,Clear,360,2013-09-02 13:55:00
9:15 AM,64.0,56.8,77,30.06,10.0,North,3.5,-,N/A,,Clear,360,2013-09-02 14:15:00
9:35 AM,65.8,56.7,72,30.07,10.0,North,3.5,-,N/A,,Clear,360,2013-09-02 14:35:00
9:55 AM,67.1,56.5,69,30.07,10.0,North,4.6,-,N/A,,Clear,350,2013-09-02 14:55:00
10:15 AM,68.2,56.5,66,30.06,10.0,North,4.6,-,N/A,,Clear,360,2013-09-02 15:15:00
10:35 AM,69.3,56.3,63,30.06,10.0,North,4.6,-,N/A,,Clear,360,2013-09-02 15:35:00
10:55 AM,70.5,56.3,61,30.06,10.0,NNW,6.9,-,N/A,,Scattered Clouds,340,2013-09-02 15:55:00
11:15 AM,70.7,55.8,59,30.06,10.0,North,4.6,-,N/A,,Clear,350,2013-09-02 16:15:00
11:35 AM,71.6,55.4,57,30.07,10.0,NNW,8.1,-,N/A,,Clear,330,2013-09-02 16:35:00
11:55 AM,73.4,55.4,53,30.07,10.0,North,3.5,-,N/A,,Clear,360,2013-09-02 16:55:00
12:15 PM,73.4,54.9,52,30.06,10.0,NNW,9.2,-,N/A,,Clear,340,2013-09-02 17:15:00
12:35 PM,73.2,54.7,52,30.06,10.0,North,3.5,-,N/A,,Clear,360,2013-09-02 17:35:00
12:55 PM,74.5,54.5,50,30.06,10.0,North,5.8,-,N/A,,Clear,350,2013-09-02 17:55:00
1:15 PM,75.7,54.3,47,30.05,10.0,NNW,8.1,-,N/A,,Clear,340,2013-09-02 18:15:00
1:35 PM,75.4,53.6,47,30.05,10.0,North,10.4,-,N/A,,Clear,350,2013-09-02 18:35:00
1:55 PM,77.4,54.1,44,30.04,10.0,NW,9.2,-,N/A,,Clear,320,2013-09-02 18:55:00
2:15 PM,77.7,53.4,43,30.04,10.0,North,3.5,-,N/A,,Clear,10,2013-09-02 19:15:00
2:35 PM,77.5,52.0,41,30.03,10.0,North,9.2,-,N/A,,Clear,10,2013-09-02 19:35:00
2:55 PM,78.8,50.0,36,30.02,10.0,North,4.6,-,N/A,,Clear,350,2013-09-02 19:55:00
3:15 PM,78.8,52.2,39,30.02,10.0,NNW,3.5,-,N/A,,Clear,340,2013-09-02 20:15:00
3:35 PM,79.2,49.6,35,30.02,10.0,North,5.8,-,N/A,,Clear,360,2013-09-02 20:35:00
3:55 PM,79.2,50.7,37,30.01,10.0,North,6.9,-,N/A,,Clear,350,2013-09-02 20:55:00
4:15 PM,78.4,48.6,35,30.01,10.0,North,6.9,-,N/A,,Clear,10,2013-09-02 21:15:00
4:35 PM,78.8,47.3,33,30.01,10.0,North,8.1,-,N/A,,Clear,350,2013-09-02 21:35:00
4:55 PM,78.4,45.7,31,30.01,10.0,NW,8.1,-,N/A,,Clear,320,2013-09-02 21:55:00
5:15 PM,77.9,46.9,33,30.01,10.0,North,3.5,-,N/A,,Clear,350,2013-09-02 22:15:00
5:35 PM,77.5,47.8,35,30.01,10.0,North,6.9,-,N/A,,Clear,350,2013-09-02 22:35:00
5:55 PM,77.4,48.0,35,30.01,10.0,North,5.8,-,N/A,,Clear,360,2013-09-02 22:55:00
6:15 PM,76.3,48.2,37,30.01,10.0,NNE,3.5,-,N/A,,Clear,20,2013-09-02 23:15:00
6:35 PM,75.2,49.1,40,30.01,10.0,North,4.6,-,N/A,,Clear,10,2013-09-02 23:35:00
6:55 PM,73.6,50.2,44,30.01,10.0,Calm,Calm,-,N/A,,Clear,0,2013-09-02 23:55:00
7:15 PM,71.2,51.3,49,30.01,10.0,Calm,Calm,-,N/A,,Clear,0,2013-09-03 00:15:00
7:35 PM,67.8,51.8,56,30.02,10.0,Calm,Calm,-,N/A,,Clear,0,2013-09-03 00:35:00
7:55 PM,65.7,51.8,61,30.02,10.0,Calm,Calm,-,N/A,,Clear,0,2013-09-03 00:55:00
8:15 PM,63.7,51.8,65,30.02,10.0,Calm,Calm,-,N/A,,Clear,0,2013-09-03 01:15:00
8:35 PM,61.9,51.8,69,30.02,10.0,Calm,Calm,-,N/A,,Clear,0,2013-09-03 01:35:00
8:55 PM,60.4,51.8,73,30.03,10.0,Calm,Calm,-,N/A,,Clear,0,2013-09-03 01:55:00
9:15 PM,59.9,52.2,76,30.04,10.0,Calm,Calm,-,N/A,,Clear,0,2013-09-03 02:15:00
9:35 PM,59.2,52.3,78,30.04,10.0,Calm,Calm,-,N/A,,Clear,0,2013-09-03 02:35:00
9:55 PM,59.0,52.2,78,30.04,10.0,Calm,Calm,-,N/A,,Clear,0,2013-09-03 02:55:00
10:15 PM,58.1,52.0,80,30.05,10.0,Calm,Calm,-,N/A,,Clear,0,2013-09-03 03:15:00
10:35 PM,58.3,52.0,80,30.05,10.0,Calm,Calm,-,N/A,,Clear,0,2013-09-03 03:35:00
10:55 PM,58.1,52.0,80,30.05,10.0,NE,3.5,-,N/A,,Clear,40,2013-09-03 03:55:00
11:15 PM,57.9,51.8,80,30.06,10.0,Calm,Calm,-,N/A,,Clear,0,2013-09-03 04:15:00
11:35 PM,57.2,51.8,82,30.06,10.0,NE,3.5,-,N/A,,Clear,40,2013-09-03 04:35:00
11:55 PM,57.2,51.8,82,30.06,10.0,Calm,Calm,-,N/A,,Clear,0,2013-09-03 04:55:00